Time;durP1;ratioP1;P1;durP2;ratioP2;P2;SDS_P1;SDS_P2;PMS_P1;PMS_P2;Temp;Humidity;BMP_temperature;BMP_pressure;BME280_temperature;BME280_humidity;BME280_pressure;Samples;Min_cycle;Max_cycle;Signal;HPM_P1;HPM_P2
2022/03/14 00:03:05;;;;;;;13.32;5.45;;;;;;;;;;10566320;27;20444;-76
2022/03/14 00:08:08;;;;;;;14.05;5.82;;;;;;;;;;10570583;28;20446;-76
2022/03/14 00:13:12;;;;;;;14.30;6.18;;;;;;;;;;10571512;27;20052;-75
2022/03/14 00:18:15;;;;;;;12.07;5.53;;;;;;;;;;10560833;27;20044;-76
2022/03/14 00:23:18;;;;;;;10.32;5.50;;;;;;;;;;10570878;27;20748;-75
2022/03/14 00:28:21;;;;;;;11.05;5.47;;;;;;;;;;10563368;27;20121;-76
2022/03/14 00:33:23;;;;;;;13.32;5.80;;;;;;;;;;10567691;28;20073;-75
2022/03/14 00:38:25;;;;;;;16.23;6.18;;;;;;;;;;10566241;27;20554;-75
2022/03/14 00:43:28;;;;;;;14.18;6.45;;;;;;;;;;10565811;27;20069;-75
2022/03/14 00:48:32;;;;;;;11.95;5.50;;;;;;;;;;10552410;27;20051;-75
2022/03/14 00:53:34;;;;;;;11.70;5.45;;;;;;;;;;10529462;28;20048;-75
2022/03/14 00:58:36;;;;;;;13.30;5.95;;;;;;;;;;10560615;28;20031;-76
2022/03/14 01:03:37;;;;;;;13.07;5.63;;;;;;;;;;10581015;27;20514;-76
2022/03/14 01:08:40;;;;;;;16.40;6.10;;;;;;;;;;10568552;28;20039;-76
2022/03/14 01:13:43;;;;;;;15.13;5.93;;;;;;;;;;10565208;27;20067;-75
2022/03/14 01:18:45;;;;;;;12.93;6.10;;;;;;;;;;10566876;27;20035;-75
2022/03/14 01:23:46;;;;;;;13.18;5.43;;;;;;;;;;10568954;27;20048;-75
2022/03/14 01:28:48;;;;;;;13.95;5.97;;;;;;;;;;10565395;28;20434;-75
2022/03/14 01:33:49;;;;;;;13.57;5.85;;;;;;;;;;10560100;27;20104;-75
2022/03/14 01:38:51;;;;;;;13.02;5.80;;;;;;;;;;10565553;27;20036;-75
2022/03/14 01:43:53;;;;;;;12.02;5.70;;;;;;;;;;10564864;27;20044;-75
2022/03/14 01:48:55;;;;;;;10.20;5.50;;;;;;;;;;10558662;28;20043;-75
2022/03/14 01:53:59;;;;;;;16.77;5.45;;;;;;;;;;10565383;27;20051;-75
2022/03/14 01:59:00;;;;;;;13.45;6.88;;;;;;;;;;10566885;27;20046;-76
2022/03/14 02:04:02;;;;;;;13.30;5.63;;;;;;;;;;10579062;27;20046;-75
2022/03/14 02:09:03;;;;;;;13.02;5.80;;;;;;;;;;10553465;28;20126;-76
2022/03/14 02:14:06;;;;;;;14.43;6.38;;;;;;;;;;10564744;27;20545;-76
2022/03/14 02:19:07;;;;;;;11.68;5.35;;;;;;;;;;10554935;28;20493;-76
2022/03/14 02:24:11;;;;;;;11.90;5.65;;;;;;;;;;10553094;27;20050;-76
2022/03/14 02:29:13;;;;;;;11.13;5.20;;;;;;;;;;10564982;27;20038;-76
2022/03/14 02:34:15;;;;;;;11.43;5.40;;;;;;;;;;10560563;27;20058;-76
2022/03/14 02:39:16;;;;;;;11.95;5.85;;;;;;;;;;10566570;27;20135;-76
2022/03/14 02:44:18;;;;;;;13.25;6.68;;;;;;;;;;10561778;27;20067;-76
2022/03/14 02:49:19;;;;;;;12.88;5.93;;;;;;;;;;10560092;27;20422;-76
2022/03/14 02:54:21;;;;;;;14.90;6.53;;;;;;;;;;10531260;28;20426;-76
2022/03/14 02:59:23;;;;;;;12.18;6.03;;;;;;;;;;10524438;28;20101;-76
2022/03/14 03:04:25;;;;;;;12.15;5.45;;;;;;;;;;10553709;27;20054;-75
2022/03/14 03:09:30;;;;;;;12.65;5.70;;;;;;;;;;10531882;28;20131;-76
2022/03/14 03:14:31;;;;;;;13.10;5.78;;;;;;;;;;10560675;27;20126;-76
2022/03/14 03:19:32;;;;;;;12.90;5.65;;;;;;;;;;10561520;27;20055;-76
2022/03/14 03:24:34;;;;;;;13.32;5.72;;;;;;;;;;10555892;27;20061;-75
2022/03/14 03:29:36;;;;;;;10.98;5.68;;;;;;;;;;10560188;27;20035;-76
2022/03/14 03:34:38;;;;;;;12.82;6.28;;;;;;;;;;10558631;27;20052;-76
2022/03/14 03:39:39;;;;;;;14.57;5.90;;;;;;;;;;10562763;27;20044;-75
2022/03/14 03:44:40;;;;;;;12.70;5.50;;;;;;;;;;10560807;27;20510;-76
2022/03/14 03:49:42;;;;;;;13.43;5.85;;;;;;;;;;10558399;27;20063;-76
2022/03/14 03:54:43;;;;;;;12.32;5.80;;;;;;;;;;10557421;27;20155;-76
2022/03/14 03:59:45;;;;;;;12.68;5.63;;;;;;;;;;10547966;28;20050;-77
2022/03/14 04:04:50;;;;;;;15.50;7.53;;;;;;;;;;10561448;27;20044;-78
2022/03/14 04:09:55;;;;;;;15.23;7.38;;;;;;;;;;10560505;27;20036;-77
2022/03/14 04:14:58;;;;;;;14.60;6.95;;;;;;;;;;10560324;27;20503;-78
2022/03/14 04:20:00;;;;;;;14.13;7.72;;;;;;;;;;10559722;27;20090;-78
2022/03/14 04:25:03;;;;;;;13.93;6.85;;;;;;;;;;10556359;28;20039;-78
2022/03/14 04:30:05;;;;;;;17.50;7.85;;;;;;;;;;10565612;28;20412;-79
2022/03/14 04:35:07;;;;;;;16.00;7.05;;;;;;;;;;10582603;28;20120;-80
2022/03/14 04:40:11;;;;;;;18.70;8.65;;;;;;;;;;10554440;28;20048;-81
2022/03/14 04:45:12;;;;;;;15.27;7.15;;;;;;;;;;10560879;28;20104;-79
2022/03/14 04:50:16;;;;;;;15.90;7.90;;;;;;;;;;10579299;27;20561;-79
2022/03/14 04:55:17;;;;;;;15.80;7.90;;;;;;;;;;10584426;28;20043;-80
2022/03/14 05:00:19;;;;;;;16.15;8.15;;;;;;;;;;10586678;28;20143;-78
2022/03/14 05:05:20;;;;;;;18.40;8.23;;;;;;;;;;10582112;28;20031;-81
2022/03/14 05:10:22;;;;;;;16.63;8.18;;;;;;;;;;10593047;27;20074;-81
2022/03/14 05:15:27;;;;;;;16.52;8.13;;;;;;;;;;10603033;27;20044;-81
2022/03/14 05:20:29;;;;;;;16.75;8.65;;;;;;;;;;10593474;27;20040;-81
2022/03/14 05:25:32;;;;;;;18.27;8.43;;;;;;;;;;10593002;28;20054;-80
2022/03/14 05:30:33;;;;;;;18.48;8.30;;;;;;;;;;10601957;27;20059;-80
2022/03/14 05:35:34;;;;;;;15.25;8.27;;;;;;;;;;10585605;28;20040;-79
2022/03/14 05:40:36;;;;;;;17.65;8.95;;;;;;;;;;10576346;27;20920;-79
2022/03/14 05:45:37;;;;;;;17.60;8.65;;;;;;;;;;10563915;28;20040;-79
2022/03/14 05:50:39;;;;;;;18.65;8.68;;;;;;;;;;10567803;27;20071;-79
2022/03/14 05:55:40;;;;;;;15.27;8.88;;;;;;;;;;10595891;28;20050;-80
2022/03/14 06:00:41;;;;;;;17.27;9.27;;;;;;;;;;10588477;28;20067;-78
2022/03/14 06:05:43;;;;;;;15.48;8.90;;;;;;;;;;10585141;28;20069;-79
2022/03/14 06:10:46;;;;;;;17.58;8.30;;;;;;;;;;10585063;28;20056;-79
2022/03/14 06:15:47;;;;;;;19.30;9.57;;;;;;;;;;10564983;27;20059;-77
2022/03/14 06:20:49;;;;;;;18.73;9.55;;;;;;;;;;10574690;27;20047;-77
2022/03/14 06:25:50;;;;;;;17.13;9.82;;;;;;;;;;10569354;27;20520;-76
2022/03/14 06:30:51;;;;;;;18.40;9.90;;;;;;;;;;10554029;28;20044;-73
2022/03/14 06:35:53;;;;;;;19.25;10.50;;;;;;;;;;10550552;27;20043;-71
2022/03/14 06:40:56;;;;;;;21.05;10.18;;;;;;;;;;10556513;28;20048;-71
2022/03/14 06:45:58;;;;;;;21.02;10.57;;;;;;;;;;10554039;27;20040;-71
2022/03/14 06:51:00;;;;;;;23.10;11.57;;;;;;;;;;10558092;28;20366;-73
2022/03/14 06:56:02;;;;;;;19.20;10.45;;;;;;;;;;10543266;27;20923;-71
2022/03/14 07:01:06;;;;;;;29.73;11.90;;;;;;;;;;10542834;27;20043;-72
2022/03/14 07:06:07;;;;;;;23.13;11.07;;;;;;;;;;10565183;27;20043;-70
2022/03/14 07:11:09;;;;;;;24.50;11.00;;;;;;;;;;10563026;27;20048;-72
2022/03/14 07:16:11;;;;;;;20.13;10.68;;;;;;;;;;10567934;28;20084;-75
2022/03/14 07:21:13;;;;;;;22.75;11.25;;;;;;;;;;10551391;27;20043;-74
2022/03/14 07:26:15;;;;;;;20.30;10.38;;;;;;;;;;10547058;28;20040;-72
2022/03/14 07:31:17;;;;;;;19.42;11.20;;;;;;;;;;10547187;27;20040;-71
2022/03/14 07:36:19;;;;;;;22.98;10.95;;;;;;;;;;10541438;28;20085;-73
2022/03/14 07:41:25;;;;;;;22.13;10.98;;;;;;;;;;10549072;27;20208;-73
2022/03/14 07:47:16;;;;;;;22.77;10.75;;;;;;;;;;10544428;27;20032;-73
2022/03/14 07:52:18;;;;;;;22.05;9.90;;;;;;;;;;10555829;28;20044;-72
2022/03/14 07:57:20;;;;;;;18.45;9.90;;;;;;;;;;10552461;27;20065;-71
2022/03/14 08:02:23;;;;;;;16.70;9.43;;;;;;;;;;10555381;27;20101;-72
2022/03/14 08:07:28;;;;;;;19.58;9.82;;;;;;;;;;10574778;27;20051;-73
2022/03/14 08:12:33;;;;;;;20.92;10.52;;;;;;;;;;10542219;28;20054;-73
2022/03/14 08:17:42;;;;;;;21.30;10.25;;;;;;;;;;10553284;27;20039;-73
2022/03/14 08:22:43;;;;;;;19.27;10.25;;;;;;;;;;10552676;27;20047;-73
2022/03/14 08:27:46;;;;;;;20.48;10.90;;;;;;;;;;10564630;28;20039;-72
2022/03/14 08:32:49;;;;;;;24.85;11.63;;;;;;;;;;10566619;27;20040;-71
2022/03/14 08:37:51;;;;;;;21.42;11.98;;;;;;;;;;10558377;27;20059;-71
2022/03/14 08:42:54;;;;;;;22.17;11.80;;;;;;;;;;10556607;27;20047;-71
2022/03/14 08:47:56;;;;;;;23.75;13.25;;;;;;;;;;10559584;27;20054;-70
2022/03/14 08:52:58;;;;;;;24.10;11.85;;;;;;;;;;10559701;27;20394;-71
2022/03/14 08:58:00;;;;;;;23.02;13.50;;;;;;;;;;10561427;27;20077;-72
2022/03/14 09:03:02;;;;;;;25.33;14.30;;;;;;;;;;10557351;27;20044;-72
2022/03/14 09:08:04;;;;;;;32.92;16.95;;;;;;;;;;10572876;27;20073;-74
2022/03/14 09:13:06;;;;;;;25.70;14.70;;;;;;;;;;10541498;27;20063;-73
2022/03/14 09:18:08;;;;;;;25.80;14.07;;;;;;;;;;10564880;27;20067;-73
2022/03/14 09:23:10;;;;;;;27.20;13.95;;;;;;;;;;10563837;27;20086;-72
2022/03/14 09:28:12;;;;;;;24.20;12.85;;;;;;;;;;10549360;27;20049;-72
2022/03/14 09:33:14;;;;;;;21.58;11.57;;;;;;;;;;10551137;27;20042;-72
2022/03/14 09:38:17;;;;;;;19.67;10.48;;;;;;;;;;10566701;27;20035;-72
2022/03/14 09:43:22;;;;;;;18.10;9.95;;;;;;;;;;10563499;27;20130;-74
2022/03/14 09:48:24;;;;;;;14.88;8.63;;;;;;;;;;10559487;27;20078;-73
2022/03/14 09:53:33;;;;;;;14.55;7.10;;;;;;;;;;10568650;27;20688;-75
2022/03/14 09:58:39;;;;;;;12.65;6.63;;;;;;;;;;10562911;27;20044;-74
2022/03/14 10:03:41;;;;;;;12.55;6.18;;;;;;;;;;10564057;28;20131;-77
2022/03/14 10:08:49;;;;;;;10.20;5.47;;;;;;;;;;10556702;27;20587;-77
2022/03/14 10:13:52;;;;;;;14.18;6.55;;;;;;;;;;10555279;27;20039;-78
2022/03/14 10:18:57;;;;;;;11.88;5.22;;;;;;;;;;10575033;27;20039;-77
2022/03/14 10:24:54;;;;;;;10.70;5.47;;;;;;;;;;10560699;27;20046;-77
2022/03/14 10:30:33;;;;;;;9.23;4.68;;;;;;;;;;10572130;27;20130;-77
2022/03/14 10:35:42;;;;;;;9.52;4.60;;;;;;;;;;10570604;27;20059;-77
2022/03/14 10:40:44;;;;;;;10.13;4.72;;;;;;;;;;10566650;28;20670;-77
2022/03/14 10:45:48;;;;;;;10.45;4.75;;;;;;;;;;10567790;27;20054;-76
2022/03/14 10:51:22;;;;;;;9.55;4.47;;;;;;;;;;10577841;28;20070;-77
2022/03/14 10:57:32;;;;;;;11.02;4.72;;;;;;;;;;10553989;27;20539;-76
2022/03/14 11:02:37;;;;;;;10.90;5.18;;;;;;;;;;10537631;27;20057;-74
2022/03/14 11:07:43;;;;;;;13.05;5.00;;;;;;;;;;10575294;27;20071;-76
2022/03/14 11:12:57;;;;;;;10.90;5.25;;;;;;;;;;10570425;27;20122;-71
2022/03/14 11:18:07;;;;;;;10.23;5.30;;;;;;;;;;10557002;27;20039;-73
2022/03/14 11:23:10;;;;;;;9.65;5.05;;;;;;;;;;10565679;28;20062;-75
2022/03/14 11:28:17;;;;;;;12.30;5.63;;;;;;;;;;10550553;27;20105;-76
2022/03/14 11:33:19;;;;;;;12.68;6.00;;;;;;;;;;10558092;27;20046;-75
2022/03/14 11:38:21;;;;;;;13.02;6.28;;;;;;;;;;10543024;28;20495;-77
2022/03/14 11:43:25;;;;;;;12.65;5.70;;;;;;;;;;10560483;27;20059;-77
2022/03/14 11:48:37;;;;;;;11.57;5.32;;;;;;;;;;10554218;27;20048;-76
2022/03/14 11:53:50;;;;;;;10.73;5.35;;;;;;;;;;10542146;28;20945;-77
2022/03/14 11:58:58;;;;;;;12.57;6.18;;;;;;;;;;10565251;27;20050;-74
2022/03/14 12:04:10;;;;;;;12.73;5.95;;;;;;;;;;10564356;27;20051;-74
2022/03/14 12:09:23;;;;;;;13.45;6.45;;;;;;;;;;10579465;27;20093;-75
2022/03/14 12:14:44;;;;;;;15.60;7.28;;;;;;;;;;10550493;27;20043;-77
2022/03/14 12:19:49;;;;;;;13.65;7.70;;;;;;;;;;10564663;28;20039;-77
2022/03/14 12:24:51;;;;;;;15.65;8.13;;;;;;;;;;10555761;27;20830;-78
2022/03/14 12:29:54;;;;;;;14.88;8.00;;;;;;;;;;10561851;27;20053;-79
2022/03/14 12:35:00;;;;;;;16.65;9.90;;;;;;;;;;10564314;27;20049;-78
2022/03/14 12:40:06;;;;;;;20.15;9.43;;;;;;;;;;10547180;27;20881;-75
2022/03/14 12:45:16;;;;;;;18.20;10.68;;;;;;;;;;10551773;28;20135;-75
2022/03/14 12:50:37;;;;;;;20.45;12.20;;;;;;;;;;10550347;27;20051;-72
2022/03/14 12:55:42;;;;;;;20.15;11.23;;;;;;;;;;10556159;27;20096;-71
2022/03/14 13:00:44;;;;;;;18.48;10.93;;;;;;;;;;10550780;28;20047;-71
2022/03/14 13:05:59;;;;;;;18.27;10.55;;;;;;;;;;10564081;27;20067;-73
2022/03/14 13:11:00;;;;;;;18.23;11.23;;;;;;;;;;10567526;28;20050;-73
2022/03/14 13:16:05;;;;;;;20.02;11.02;;;;;;;;;;10568322;27;20543;-73
2022/03/14 13:21:26;;;;;;;17.27;9.95;;;;;;;;;;10551712;27;20048;-73
2022/03/14 13:26:34;;;;;;;20.75;11.15;;;;;;;;;;10559553;27;20043;-74
2022/03/14 13:31:43;;;;;;;18.65;10.45;;;;;;;;;;10554158;27;20403;-74
2022/03/14 13:36:52;;;;;;;16.48;8.82;;;;;;;;;;10557068;27;20051;-74
2022/03/14 13:42:00;;;;;;;11.98;6.72;;;;;;;;;;10558430;27;20134;-74
2022/03/14 13:47:02;;;;;;;14.23;7.20;;;;;;;;;;10555498;28;20127;-75
2022/03/14 13:52:14;;;;;;;14.95;6.18;;;;;;;;;;10550187;27;20081;-74
2022/03/14 13:57:28;;;;;;;11.65;4.55;;;;;;;;;;10554735;28;20073;-74
2022/03/14 14:02:34;;;;;;;10.95;4.43;;;;;;;;;;10563176;27;20056;-75
2022/03/14 14:07:48;;;;;;;13.32;6.80;;;;;;;;;;10571790;27;20038;-76
2022/03/14 14:13:00;;;;;;;15.00;7.32;;;;;;;;;;10555847;27;20085;-77
2022/03/14 14:18:02;;;;;;;;;;;;;;;;;;10555617;27;20059;-74
2022/03/14 14:23:05;;;;;;;12.18;4.95;;;;;;;;;;10554450;27;19966;-75
2022/03/14 14:28:36;;;;;;;16.83;5.55;;;;;;;;;;10555320;27;20034;-74
2022/03/14 14:33:53;;;;;;;13.02;5.53;;;;;;;;;;10540064;27;20540;-75
2022/03/14 14:38:55;;;;;;;;;;;;;;;;;;10537572;28;20043;-74
2022/03/14 14:43:59;;;;;;;13.93;5.72;;;;;;;;;;10553618;27;19934;-75
2022/03/14 14:49:03;;;;;;;16.50;6.35;;;;;;;;;;10536531;28;20044;-74
2022/03/14 14:54:05;;;;;;;17.20;5.90;;;;;;;;;;10553097;28;20120;-73
2022/03/14 14:59:09;;;;;;;14.00;5.55;;;;;;;;;;10553828;27;20035;-74
2022/03/14 15:04:12;;;;;;;16.67;6.20;;;;;;;;;;10573937;27;20110;-72
2022/03/14 15:09:14;;;;;;;14.35;6.20;;;;;;;;;;10580697;27;20804;-72
2022/03/14 15:14:32;;;;;;;15.55;6.65;;;;;;;;;;10544983;28;20048;-72
2022/03/14 15:19:37;;;;;;;19.48;8.00;;;;;;;;;;10569527;27;20040;-73
2022/03/14 15:24:41;;;;;;;15.55;7.10;;;;;;;;;;10559094;28;20047;-73
2022/03/14 15:29:48;;;;;;;18.05;7.82;;;;;;;;;;10557190;28;20067;-73
2022/03/14 15:34:51;;;;;;;19.70;8.30;;;;;;;;;;10557205;28;20138;-70
2022/03/14 15:39:52;;;;;;;17.30;8.00;;;;;;;;;;10568518;27;20959;-76
2022/03/14 15:44:55;;;;;;;18.75;9.20;;;;;;;;;;10546649;27;20055;-74
2022/03/14 15:49:57;;;;;;;18.52;9.85;;;;;;;;;;10556801;27;20040;-74
2022/03/14 15:55:00;;;;;;;26.23;14.52;;;;;;;;;;10555978;27;20510;-74
2022/03/14 16:00:04;;;;;;;32.97;12.43;;;;;;;;;;10553377;28;20027;-74
2022/03/14 16:05:15;;;;;;;25.40;11.40;;;;;;;;;;10549740;28;20155;-75
2022/03/14 16:10:16;;;;;;;21.85;12.02;;;;;;;;;;10563594;27;20047;-74
2022/03/14 16:15:18;;;;;;;22.90;10.70;;;;;;;;;;10554076;28;20036;-74
2022/03/14 16:20:20;;;;;;;22.20;9.50;;;;;;;;;;10555229;27;20064;-75
2022/03/14 16:25:22;;;;;;;19.73;9.65;;;;;;;;;;10552222;28;20042;-75
2022/03/14 16:30:24;;;;;;;17.48;9.52;;;;;;;;;;10548515;27;20058;-74
2022/03/14 16:35:27;;;;;;;21.70;10.05;;;;;;;;;;10555470;28;20043;-78
2022/03/14 16:40:34;;;;;;;20.08;9.57;;;;;;;;;;10540162;27;20067;-78
2022/03/14 16:45:36;;;;;;;18.45;8.98;;;;;;;;;;10567859;27;20491;-78
2022/03/14 16:50:38;;;;;;;25.35;9.25;;;;;;;;;;10563092;27;20035;-78
2022/03/14 16:55:39;;;;;;;19.65;9.32;;;;;;;;;;10570929;28;20071;-79
2022/03/14 17:00:42;;;;;;;20.10;10.25;;;;;;;;;;10569275;27;20058;-79
2022/03/14 17:05:44;;;;;;;28.38;10.80;;;;;;;;;;10558074;28;20096;-78
2022/03/14 17:10:50;;;;;;;25.80;10.15;;;;;;;;;;10561668;28;20093;-78
2022/03/14 17:15:52;;;;;;;20.58;10.95;;;;;;;;;;10573069;27;20063;-79
2022/03/14 17:20:56;;;;;;;21.13;12.38;;;;;;;;;;10565330;27;20047;-80
2022/03/14 17:25:57;;;;;;;20.40;11.40;;;;;;;;;;10573643;28;20035;-80
2022/03/14 17:30:59;;;;;;;23.48;11.10;;;;;;;;;;10567047;27;20495;-79
2022/03/14 17:36:00;;;;;;;23.67;12.52;;;;;;;;;;10569447;28;20043;-80
2022/03/14 17:41:02;;;;;;;23.90;12.48;;;;;;;;;;10573520;27;20079;-81
2022/03/14 17:46:05;;;;;;;24.52;11.52;;;;;;;;;;10563518;28;20429;-79
2022/03/14 17:51:07;;;;;;;24.88;12.48;;;;;;;;;;10557569;28;20071;-79
2022/03/14 17:56:11;;;;;;;23.92;12.20;;;;;;;;;;10559326;28;20057;-78
2022/03/14 18:01:13;;;;;;;25.42;12.35;;;;;;;;;;10561232;28;20044;-65
2022/03/14 18:06:15;;;;;;;22.00;11.38;;;;;;;;;;10550401;27;20078;-67
2022/03/14 18:11:19;;;;;;;24.95;12.27;;;;;;;;;;10577063;27;20044;-81
2022/03/14 18:16:23;;;;;;;21.08;10.73;;;;;;;;;;10566582;27;20082;-80
2022/03/14 18:21:25;;;;;;;20.92;11.60;;;;;;;;;;10561769;28;20098;-82
2022/03/14 18:26:26;;;;;;;33.22;12.63;;;;;;;;;;10574496;27;20052;-81
2022/03/14 18:31:28;;;;;;;22.25;10.65;;;;;;;;;;10578855;27;20119;-82
2022/03/14 18:36:30;;;;;;;35.65;15.00;;;;;;;;;;10555370;27;20075;-81
2022/03/14 18:41:42;;;;;;;28.15;13.27;;;;;;;;;;10564989;27;20069;-82
2022/03/14 18:46:44;;;;;;;45.35;18.08;;;;;;;;;;10568161;27;20040;-81
2022/03/14 18:51:46;;;;;;;26.42;12.52;;;;;;;;;;10570436;27;20059;-82
2022/03/14 18:56:48;;;;;;;32.20;13.32;;;;;;;;;;10568179;28;20067;-82
2022/03/14 19:01:53;;;;;;;26.73;12.45;;;;;;;;;;10573398;27;20036;-80
2022/03/14 19:06:55;;;;;;;35.45;14.27;;;;;;;;;;10587391;27;20162;-81
2022/03/14 19:11:58;;;;;;;26.20;10.93;;;;;;;;;;10567445;27;20414;-82
2022/03/14 19:17:00;;;;;;;31.80;12.38;;;;;;;;;;10569095;28;20039;-81
2022/03/14 19:22:02;;;;;;;22.63;10.70;;;;;;;;;;10567687;27;20467;-82
2022/03/14 19:27:05;;;;;;;21.35;10.93;;;;;;;;;;10572813;27;20658;-81
2022/03/14 19:32:06;;;;;;;20.10;11.00;;;;;;;;;;10570587;27;20054;-81
2022/03/14 19:37:08;;;;;;;23.92;10.75;;;;;;;;;;10560102;27;20064;-82
2022/03/14 19:42:11;;;;;;;17.88;10.20;;;;;;;;;;10561518;27;20070;-82
2022/03/14 19:47:12;;;;;;;19.60;11.20;;;;;;;;;;10564472;27;20040;-82
2022/03/14 19:52:14;;;;;;;21.83;10.80;;;;;;;;;;10564830;27;20047;-81
2022/03/14 19:57:15;;;;;;;20.67;10.98;;;;;;;;;;10553221;27;20120;-81
2022/03/14 20:02:18;;;;;;;19.73;10.35;;;;;;;;;;10575927;27;20078;-81
2022/03/14 20:07:20;;;;;;;19.80;10.68;;;;;;;;;;10570412;27;20048;-81
2022/03/14 20:12:24;;;;;;;21.75;10.25;;;;;;;;;;10573592;27;20055;-80
2022/03/14 20:17:26;;;;;;;15.50;8.98;;;;;;;;;;10571674;27;20104;-81
2022/03/14 20:22:28;;;;;;;17.42;9.63;;;;;;;;;;10575682;27;20103;-81
2022/03/14 20:27:30;;;;;;;22.80;9.75;;;;;;;;;;10570530;27;20043;-82
2022/03/14 20:32:34;;;;;;;14.82;8.55;;;;;;;;;;10577154;27;20054;-81
2022/03/14 20:37:36;;;;;;;17.23;8.48;;;;;;;;;;10578288;27;20051;-81
2022/03/14 20:42:37;;;;;;;19.25;9.05;;;;;;;;;;10564970;27;20054;-81
2022/03/14 20:47:40;;;;;;;17.17;8.63;;;;;;;;;;10565522;27;20114;-80
2022/03/14 20:52:41;;;;;;;16.45;8.80;;;;;;;;;;10562788;27;20157;-80
2022/03/14 20:57:43;;;;;;;18.13;9.30;;;;;;;;;;10560666;27;20399;-81
2022/03/14 21:03:04;;;;;;;19.50;10.52;;;;;;;;;;10576754;27;20103;-80
2022/03/14 21:08:11;;;;;;;16.38;8.95;;;;;;;;;;10592786;27;20070;-80
2022/03/14 21:13:32;;;;;;;15.27;8.65;;;;;;;;;;10590003;27;20065;-80
2022/03/14 21:18:37;;;;;;;19.42;9.93;;;;;;;;;;10565612;28;20142;-78
2022/03/14 21:23:43;;;;;;;18.90;9.27;;;;;;;;;;10565833;27;21267;-81
2022/03/14 21:28:45;;;;;;;17.50;7.72;;;;;;;;;;10570690;28;20479;-81
2022/03/14 21:33:57;;;;;;;17.58;8.68;;;;;;;;;;10560948;28;20051;-81
2022/03/14 21:38:59;;;;;;;18.42;8.98;;;;;;;;;;10567989;28;20032;-80
2022/03/14 21:44:04;;;;;;;18.75;8.57;;;;;;;;;;10570871;27;20167;-80
2022/03/14 21:49:07;;;;;;;19.05;8.25;;;;;;;;;;10563777;28;20633;-80
2022/03/14 21:54:09;;;;;;;14.93;8.18;;;;;;;;;;10567533;27;20040;-80
2022/03/14 21:59:11;;;;;;;19.27;9.02;;;;;;;;;;10549755;27;20067;-81
2022/03/14 22:04:14;;;;;;;19.17;8.68;;;;;;;;;;10576551;27;20048;-79
2022/03/14 22:09:18;;;;;;;15.30;8.32;;;;;;;;;;10569857;27;20065;-80
2022/03/14 22:14:21;;;;;;;16.10;8.02;;;;;;;;;;10576301;28;20054;-78
2022/03/14 22:19:23;;;;;;;17.50;8.20;;;;;;;;;;10538093;28;20111;-80
2022/03/14 22:24:25;;;;;;;16.70;8.40;;;;;;;;;;10560346;27;20048;-80
2022/03/14 22:29:28;;;;;;;22.38;9.50;;;;;;;;;;10558234;28;20558;-80
2022/03/14 22:34:30;;;;;;;16.77;7.80;;;;;;;;;;10516777;28;20047;-79
2022/03/14 22:39:35;;;;;;;12.15;6.22;;;;;;;;;;10528898;28;20052;-81
2022/03/14 22:44:40;;;;;;;13.98;7.15;;;;;;;;;;10538625;27;20052;-79
2022/03/14 22:49:41;;;;;;;14.60;6.88;;;;;;;;;;10567877;27;20601;-79
2022/03/14 22:54:44;;;;;;;13.70;6.45;;;;;;;;;;10572523;27;20074;-81
2022/03/14 22:59:46;;;;;;;14.38;5.75;;;;;;;;;;10579112;27;20038;-78
2022/03/14 23:10:07;;;;;;;10.17;4.70;;;;;;;;;;10603053;27;20047;-80
2022/03/14 23:15:09;;;;;;;11.82;5.53;;;;;;;;;;10613158;27;20130;-81
2022/03/14 23:20:18;;;;;;;8.63;4.68;;;;;;;;;;10598493;27;20058;-79
2022/03/14 23:25:23;;;;;;;9.17;4.53;;;;;;;;;;10602940;27;20042;-78
2022/03/14 23:30:24;;;;;;;9.80;4.82;;;;;;;;;;10548513;28;20472;-78
2022/03/14 23:35:28;;;;;;;10.50;5.55;;;;;;;;;;10546475;28;20055;-78
2022/03/14 23:40:37;;;;;;;11.20;5.32;;;;;;;;;;10565299;27;20039;-78
2022/03/14 23:45:39;;;;;;;9.87;4.90;;;;;;;;;;10542738;27;20107;-79
2022/03/14 23:50:41;;;;;;;9.43;4.78;;;;;;;;;;10562353;27;20036;-78
2022/03/14 23:55:42;;;;;;;10.43;5.20;;;;;;;;;;10574317;27;20041;-77
